Airfield :







YOU CAN JOIN US ON...

 
LOGIN :

Register | Disclaimer

   EN    FR    IT 

 









Legend :    VFR   Marginal VFR   IFR   Intensive IFR   Very Intensive IFR
Visi :
Ceiling :
>= 8 km
>= 3000ft
5 to 8 km
1000 to 3000 ft
1500m to 5 km
500 to 1000 ft
800 to 1500m
200 to 500 ft
< 800m
< 200 ft
Symbols :   Thunderstorms  Fog  Heavy snow  Heavy precipitations  Wind > 20 kt






- Airport Elevation : 70 ft


KIWI - Wiscasset

CURRENT METAR :
  • 170453Z AUTO 08017G29KT 10SM BKN018 BKN030 OVC035 12/08 A2957 RMK AO2 PK WND 08029/0452 PRESFR SLP013 T01220083 401500006

EXPIRED METARs :
  • 170353Z AUTO 08012G18KT 10SM FEW017 BKN028 12/08 A2966 RMK AO2 PRESFR SLP042 T01220083
  • 170253Z AUTO 09011G18KT 10SM BKN038 OVC049 12/08 A2973 RMK AO2 SLP066 T01220083 58041

TAF N/A



MET'MAP, your aeronautical weather chart ! - Copyright ORBIFLY December 2007 - Disclaimer

ORBIFLY MET'MAP TEAM :

Programming & Development : Alexandra Zaïnal
Concept & Development : Baudouin d'Aumeries
Co-Development & Prog : Marc-Olivier Méhu
Technical & hardware support : Manuel Goepfert

Contact : metmap@orbifly.com




SOURCES & CREDITS :

   NOAA